Time;durP1;ratioP1;P1;durP2;ratioP2;P2;SDS_P1;SDS_P2;PMS_P1;PMS_P2;Temp;Humidity;BMP_temperature;BMP_pressure;BME280_temperature;BME280_humidity;BME280_pressure;Samples;Min_cycle;Max_cycle;Signal;HPM_P1;HPM_P2
2020/12/06 00:00:39;;;;;;;32.08;18.70;;;;;;;-1.07;96.81;100187.09;4838276;29;20046;-89
2020/12/06 00:03:04;;;;;;;30.10;18.77;;;;;;;-1.03;96.63;100187.81;4849349;29;20069;-87
2020/12/06 00:05:30;;;;;;;32.38;18.60;;;;;;;-1.00;96.37;100177.09;4837982;29;20065;-89
2020/12/06 00:07:57;;;;;;;29.08;17.95;;;;;;;-0.98;96.40;100174.38;4841750;29;20093;-88
2020/12/06 00:10:23;;;;;;;31.15;18.27;;;;;;;-0.92;96.23;100171.41;4845627;29;20510;-89
2020/12/06 00:12:48;;;;;;;26.65;17.95;;;;;;;-0.95;96.32;100174.22;4823941;29;20033;-89
2020/12/06 00:15:14;;;;;;;30.20;18.13;;;;;;;-0.93;96.33;100167.03;4838189;29;20042;-89
2020/12/06 00:17:39;;;;;;;31.23;18.15;;;;;;;-0.93;96.29;100161.75;4840812;29;20125;-88
2020/12/06 00:20:10;;;;;;;31.02;18.58;;;;;;;-0.92;96.23;100156.41;4839586;29;20042;-88
2020/12/06 00:22:37;;;;;;;28.77;18.17;;;;;;;-0.95;96.24;100167.13;4837524;29;20038;-89
2020/12/06 00:25:10;;;;;;;27.42;16.75;;;;;;;-1.00;96.25;100160.38;4838875;29;20057;-88
2020/12/06 00:27:42;;;;;;;28.75;17.88;;;;;;;-1.04;96.12;100164.13;4824730;29;20120;-88
2020/12/06 00:30:09;;;;;;;30.20;17.90;;;;;;;-1.02;96.22;100167.53;4840243;29;20053;-88
2020/12/06 00:32:34;;;;;;;27.60;17.48;;;;;;;-1.06;95.98;100167.69;4839412;29;20045;-89
2020/12/06 00:35:03;;;;;;;28.60;18.30;;;;;;;-1.20;96.00;100161.41;4841647;29;20050;-90
2020/12/06 00:37:28;;;;;;;30.37;18.17;;;;;;;-1.28;96.28;100156.50;4841414;29;20049;-88
2020/12/06 00:39:55;;;;;;;25.80;17.55;;;;;;;-1.25;96.62;100141.38;4836829;29;20312;-88
2020/12/06 00:42:20;;;;;;;31.98;19.08;;;;;;;-1.25;96.76;100140.53;4818819;29;20034;-89
2020/12/06 00:44:46;;;;;;;35.35;18.23;;;;;;;-1.25;96.39;100153.72;4841520;29;20037;-87
2020/12/06 00:47:11;;;;;;;34.38;18.92;;;;;;;-1.33;96.64;100169.09;4841549;29;20034;-89
2020/12/06 00:49:36;;;;;;;33.42;18.77;;;;;;;-1.35;96.53;100169.16;4841521;29;20041;-88
2020/12/06 00:52:02;;;;;;;29.35;18.15;;;;;;;-1.28;96.89;100164.41;4842123;29;20503;-88
2020/12/06 00:54:30;;;;;;;28.83;18.33;;;;;;;-1.27;96.45;100159.06;4844813;29;20041;-88
2020/12/06 00:56:59;;;;;;;29.75;17.05;;;;;;;-1.23;96.37;100157.13;4840298;29;20392;-88
2020/12/06 00:59:24;;;;;;;30.38;19.00;;;;;;;-1.24;96.47;100171.25;4842973;29;20049;-88
2020/12/06 01:01:53;;;;;;;26.83;16.92;;;;;;;-1.29;96.62;100175.94;4856521;29;20038;-88
2020/12/06 01:04:18;;;;;;;31.63;18.85;;;;;;;-1.29;96.88;100162.72;4842889;29;20042;-87
2020/12/06 01:06:44;;;;;;;30.35;18.83;;;;;;;-1.35;96.49;100160.41;4838041;29;20174;-89
2020/12/06 01:09:12;;;;;;;30.17;17.00;;;;;;;-1.39;96.57;100164.13;4839030;29;20050;-88
2020/12/06 01:11:39;;;;;;;29.63;18.02;;;;;;;-1.42;96.61;100155.41;4861696;29;20033;-87
2020/12/06 01:14:05;;;;;;;33.22;20.00;;;;;;;-1.38;96.59;100155.25;4843853;29;20052;-88
2020/12/06 01:16:34;;;;;;;27.35;17.50;;;;;;;-1.44;96.76;100156.44;4856033;29;20033;-88
2020/12/06 01:19:06;;;;;;;30.73;17.50;;;;;;;-1.54;96.64;100156.03;4823525;29;20054;-89
2020/12/06 01:21:39;;;;;;;28.42;16.67;;;;;;;-1.56;96.46;100157.91;4834434;29;20170;-89
2020/12/06 01:24:05;;;;;;;32.03;18.42;;;;;;;-1.63;97.06;100167.06;4851145;29;20408;-89
2020/12/06 01:26:30;;;;;;;29.40;17.25;;;;;;;-1.62;96.68;100158.19;4837398;29;20104;-88
2020/12/06 01:28:58;;;;;;;28.02;17.45;;;;;;;-1.59;97.20;100155.41;4834204;29;20101;-88
2020/12/06 01:31:24;;;;;;;31.02;18.00;;;;;;;-1.59;96.98;100161.53;4822544;29;20120;-88
2020/12/06 01:33:54;;;;;;;31.00;18.58;;;;;;;-1.54;97.68;100157.84;4831591;29;20037;-88
2020/12/06 01:36:20;;;;;;;32.33;19.02;;;;;;;-1.52;97.41;100146.25;4839662;29;20408;-88
2020/12/06 01:38:48;;;;;;;35.10;20.40;;;;;;;-1.44;97.51;100156.44;4859508;29;20048;-88
2020/12/06 01:41:18;;;;;;;37.58;20.85;;;;;;;-1.42;97.47;100157.22;4836373;29;20091;-88
2020/12/06 01:44:03;;;;;;;34.15;19.10;;;;;;;-1.34;96.97;100151.53;4857245;29;20037;-88
2020/12/06 01:46:35;;;;;;;32.45;19.25;;;;;;;-1.29;97.52;100153.00;4830391;29;20034;-89
2020/12/06 01:49:01;;;;;;;32.55;19.75;;;;;;;-1.29;97.47;100153.00;4843225;29;20079;-88
2020/12/06 01:51:26;;;;;;;34.63;19.65;;;;;;;-1.28;97.46;100162.66;4839330;29;20034;-89
2020/12/06 01:53:52;;;;;;;31.98;18.77;;;;;;;-1.19;97.63;100169.25;4860399;29;20065;-89
2020/12/06 01:56:18;;;;;;;34.78;20.10;;;;;;;-1.13;97.36;100166.28;4836106;29;20046;-88
2020/12/06 01:58:43;;;;;;;36.28;19.65;;;;;;;-1.12;97.15;100170.66;4840190;29;20056;-89
2020/12/06 02:01:10;;;;;;;33.47;20.70;;;;;;;-1.07;97.52;100187.09;4834088;29;20046;-88
2020/12/06 02:03:39;;;;;;;32.75;19.40;;;;;;;-1.07;97.34;100176.53;4844679;29;20411;-88
2020/12/06 02:06:05;;;;;;;31.98;19.52;;;;;;;-1.04;97.21;100177.34;4840282;29;20125;-88
2020/12/06 02:08:31;;;;;;;32.83;17.63;;;;;;;-1.01;97.37;100169.25;4832816;29;20389;-88
2020/12/06 02:10:56;;;;;;;34.17;19.40;;;;;;;-0.96;97.38;100164.56;4829936;29;20120;-88
2020/12/06 02:13:22;;;;;;;31.75;19.33;;;;;;;-1.00;97.16;100163.88;4834796;29;20396;-88
2020/12/06 02:15:48;;;;;;;29.73;18.08;;;;;;;-1.06;97.02;100162.41;4831145;29;20054;-88
2020/12/06 02:18:14;;;;;;;31.20;18.65;;;;;;;-0.94;97.20;100166.19;4853202;29;20133;-88
2020/12/06 02:20:42;;;;;;;32.85;19.33;;;;;;;-1.00;97.15;100166.53;4840196;29;20058;-88
2020/12/06 02:23:08;;;;;;;31.90;19.17;;;;;;;-0.96;97.29;100169.84;4843531;29;20095;-87
2020/12/06 02:25:37;;;;;;;32.30;19.27;;;;;;;-0.98;96.85;100169.94;4834452;29;20069;-88
2020/12/06 02:28:06;;;;;;;38.13;19.98;;;;;;;-0.90;97.08;100167.75;4835922;29;20041;-87
2020/12/06 02:30:32;;;;;;;32.40;19.55;;;;;;;-0.96;96.82;100177.78;4840455;29;20037;-87
2020/12/06 02:32:58;;;;;;;33.75;19.00;;;;;;;-0.95;97.46;100168.94;4845666;29;20052;-87
2020/12/06 02:35:23;;;;;;;36.88;20.08;;;;;;;-1.02;96.72;100168.38;4840400;29;20041;-88
2020/12/06 02:37:49;;;;;;;33.42;18.20;;;;;;;-1.09;96.80;100175.78;4837477;29;20054;-87
2020/12/06 02:40:15;;;;;;;31.17;18.30;;;;;;;-1.06;97.00;100186.19;4840265;29;20126;-88
2020/12/06 02:42:41;;;;;;;31.33;19.30;;;;;;;-1.09;96.99;100188.09;4834068;29;20044;-87
2020/12/06 02:45:09;;;;;;;33.83;18.98;;;;;;;-1.08;97.28;100185.38;4845499;29;20041;-87
2020/12/06 02:47:35;;;;;;;34.90;19.80;;;;;;;-1.03;96.89;100184.31;4851191;29;20047;-88
2020/12/06 02:50:00;;;;;;;32.03;17.98;;;;;;;-1.12;97.16;100182.97;4830538;29;20124;-88
2020/12/06 02:52:28;;;;;;;31.20;19.40;;;;;;;-1.06;96.89;100188.81;4839185;29;20037;-87
2020/12/06 02:54:56;;;;;;;33.45;17.95;;;;;;;-1.04;96.69;100179.97;4840575;29;20034;-87
2020/12/06 02:57:23;;;;;;;29.63;18.63;;;;;;;-1.09;97.11;100186.34;4844658;29;20046;-88
2020/12/06 02:59:49;;;;;;;30.42;18.45;;;;;;;-1.13;96.81;100181.28;4826449;29;20042;-88
2020/12/06 03:02:14;;;;;;;30.70;18.58;;;;;;;-1.19;97.12;100193.03;4829094;29;20049;-87
2020/12/06 03:04:40;;;;;;;34.00;18.98;;;;;;;-1.19;96.86;100182.47;4847818;29;20060;-88
2020/12/06 03:07:06;;;;;;;33.42;17.92;;;;;;;-1.21;96.98;100173.75;4833301;29;20068;-87
2020/12/06 03:09:31;;;;;;;27.63;17.70;;;;;;;-1.22;96.57;100166.78;4829959;29;20046;-89
2020/12/06 03:11:59;;;;;;;27.83;17.23;;;;;;;-1.26;96.86;100159.94;4842842;29;20075;-88
2020/12/06 03:14:25;;;;;;;31.50;17.52;;;;;;;-1.28;96.64;100156.50;4834880;29;20369;-87
2020/12/06 03:16:53;;;;;;;25.45;16.35;;;;;;;-1.27;96.44;100143.22;4852088;29;20102;-89
2020/12/06 03:19:18;;;;;;;31.25;17.45;;;;;;;-1.30;96.58;100137.25;4843384;29;20045;-88
2020/12/06 03:21:44;;;;;;;26.80;16.38;;;;;;;-1.28;96.45;100136.25;4838520;29;20088;-88
2020/12/06 03:24:09;;;;;;;27.85;16.23;;;;;;;-1.29;96.55;100134.53;4834030;29;20057;-88
2020/12/06 03:26:37;;;;;;;29.15;16.83;;;;;;;-1.29;96.51;100133.69;4841259;29;20074;-88
2020/12/06 03:29:02;;;;;;;27.85;17.08;;;;;;;-1.30;96.75;100142.53;4834490;29;20048;-87
2020/12/06 03:31:30;;;;;;;40.17;21.80;;;;;;;-1.35;96.72;100147.22;4841805;29;20960;-88
2020/12/06 03:34:05;;;;;;;37.95;21.80;;;;;;;-1.36;96.56;100148.97;4846355;29;20503;-88
2020/12/06 03:36:32;;;;;;;35.17;19.48;;;;;;;-1.33;96.45;100147.97;4805259;29;20034;-89
2020/12/06 03:39:01;;;;;;;37.50;19.25;;;;;;;-1.31;96.47;100154.00;4836625;29;20054;-88
2020/12/06 03:41:26;;;;;;;34.00;17.85;;;;;;;-1.31;96.38;100167.22;4834402;29;20041;-88
2020/12/06 03:43:52;;;;;;;30.00;17.88;;;;;;;-1.31;96.55;100161.94;4841091;29;20386;-88
2020/12/06 03:46:23;;;;;;;28.98;17.05;;;;;;;-1.34;96.72;100170.88;4824341;29;20081;-88
2020/12/06 03:48:48;;;;;;;29.60;16.30;;;;;;;-1.36;96.55;100169.25;4825240;29;20453;-88
2020/12/06 03:51:17;;;;;;;29.05;17.67;;;;;;;-1.33;96.55;100169.09;4847442;29;20107;-88
2020/12/06 03:53:45;;;;;;;31.08;18.63;;;;;;;-1.28;96.41;100172.34;4832138;29;20053;-88
2020/12/06 03:56:11;;;;;;;39.55;20.38;;;;;;;-1.24;96.64;100165.97;4824944;29;20045;-88
2020/12/06 03:58:36;;;;;;;33.20;20.48;;;;;;;-1.23;96.48;100170.34;4840938;29;20060;-88
2020/12/06 04:01:02;;;;;;;30.70;18.83;;;;;;;-1.25;96.76;100182.78;4841345;29;20049;-88
2020/12/06 04:03:32;;;;;;;34.33;19.95;;;;;;;-1.32;96.54;100168.16;4841715;29;20041;-88
2020/12/06 04:05:57;;;;;;;31.25;19.15;;;;;;;-1.23;96.49;100183.53;4838314;29;20560;-88
2020/12/06 04:08:23;;;;;;;37.28;19.83;;;;;;;-1.28;96.38;100174.97;4847230;29;20037;-88
2020/12/06 04:10:53;;;;;;;30.27;19.40;;;;;;;-1.28;96.78;100181.13;4837042;29;20054;-87
2020/12/06 04:13:22;;;;;;;35.10;19.70;;;;;;;-1.30;96.69;100184.78;4833479;29;20460;-88
2020/12/06 04:15:47;;;;;;;32.70;20.17;;;;;;;-1.27;96.79;100172.25;4842856;29;20108;-88
2020/12/06 04:18:12;;;;;;;32.75;19.70;;;;;;;-1.18;97.13;100178.03;4841736;29;20452;-87
2020/12/06 04:20:38;;;;;;;34.65;19.83;;;;;;;-1.21;96.82;100189.59;4834748;29;20042;-88
2020/12/06 04:23:03;;;;;;;30.42;18.52;;;;;;;-1.22;96.59;100172.06;4836972;29;21021;-88
2020/12/06 04:25:32;;;;;;;34.95;19.40;;;;;;;-1.21;96.68;100175.53;4846021;29;20045;-88
2020/12/06 04:27:57;;;;;;;35.10;19.58;;;;;;;-1.21;96.87;100163.19;4845550;29;20045;-88
2020/12/06 04:30:23;;;;;;;32.67;19.70;;;;;;;-1.17;96.74;100170.03;4844993;29;20049;-88
2020/12/06 04:32:48;;;;;;;34.40;19.00;;;;;;;-1.12;96.73;100165.38;4845935;29;20124;-88
2020/12/06 04:35:14;;;;;;;30.20;18.45;;;;;;;-1.13;96.63;100166.28;4861174;29;20084;-89
2020/12/06 04:37:39;;;;;;;31.75;18.38;;;;;;;-1.12;96.60;100173.28;4854885;29;20106;-88
2020/12/06 04:40:05;;;;;;;30.13;18.50;;;;;;;-1.14;96.67;100179.59;4842348;29;20931;-89
2020/12/06 04:42:33;;;;;;;31.95;19.60;;;;;;;-1.15;96.57;100173.47;4843031;29;20120;-88
2020/12/06 04:45:00;;;;;;;29.73;18.97;;;;;;;-1.11;96.50;100174.97;4845034;29;20128;-89
2020/12/06 04:47:55;;;;;;;36.00;18.60;;;;;;;-1.15;96.53;100184.03;4845252;29;20065;-89
2020/12/06 04:50:31;;;;;;;33.22;20.63;;;;;;;-1.14;96.20;100185.69;4860046;29;20124;-89
2020/12/06 04:52:58;;;;;;;30.02;18.52;;;;;;;-1.12;96.54;100181.22;4846237;29;20045;-88
2020/12/06 04:55:36;;;;;;;34.40;19.67;;;;;;;-1.13;96.47;100184.78;4844591;29;20069;-89
2020/12/06 04:58:06;;;;;;;32.22;20.23;;;;;;;-1.13;96.59;100187.41;4855983;29;20181;-88
2020/12/06 05:00:38;;;;;;;31.98;19.65;;;;;;;-1.17;96.41;100177.94;4838256;29;20050;-88
2020/12/06 05:03:12;;;;;;;33.03;20.60;;;;;;;-1.17;96.68;100172.66;4848155;29;20068;-88
2020/12/06 05:05:41;;;;;;;31.70;19.77;;;;;;;-1.12;96.61;100173.28;4834237;29;20045;-88
2020/12/06 05:08:11;;;;;;;33.72;20.27;;;;;;;-1.12;96.46;100165.38;4834537;29;20082;-88
2020/12/06 05:10:42;;;;;;;35.95;21.05;;;;;;;-1.06;96.59;100157.13;4855041;29;20037;-88
2020/12/06 05:13:08;;;;;;;39.55;21.65;;;;;;;-1.09;96.76;100157.28;4855570;29;20411;-89
2020/12/06 05:15:36;;;;;;;37.08;20.63;;;;;;;-1.10;96.75;100160.84;4842499;29;20042;-88
2020/12/06 05:18:08;;;;;;;39.17;21.13;;;;;;;-1.08;96.74;100168.69;4854577;29;20055;-86
2020/12/06 05:20:36;;;;;;;34.85;20.73;;;;;;;-1.09;96.77;100162.56;4842280;29;20050;-87
2020/12/06 05:23:04;;;;;;;34.08;20.80;;;;;;;-1.06;96.41;100164.19;4828901;29;20041;-87
2020/12/06 05:25:30;;;;;;;33.70;20.83;;;;;;;-1.09;96.56;100165.22;4856237;29;20119;-89
2020/12/06 05:27:56;;;;;;;32.08;20.33;;;;;;;-1.01;96.34;100159.53;4837213;29;20065;-90
2020/12/06 05:30:22;;;;;;;30.35;20.25;;;;;;;-1.08;96.33;100158.97;4853510;29;20046;-88
2020/12/06 05:32:47;;;;;;;33.85;21.00;;;;;;;-1.07;96.47;100150.13;4849274;29;20731;-88
2020/12/06 05:35:13;;;;;;;35.88;21.33;;;;;;;-1.04;96.54;100156.22;4840130;29;20106;-88
2020/12/06 05:37:46;;;;;;;31.55;19.65;;;;;;;-1.07;96.33;100154.56;4843737;29;20053;-89
2020/12/06 05:40:13;;;;;;;35.65;20.42;;;;;;;-1.10;96.71;100165.28;4843923;29;20061;-88
2020/12/06 05:42:41;;;;;;;31.00;20.02;;;;;;;-1.07;96.47;100165.13;4838131;29;20513;-89
2020/12/06 05:45:09;;;;;;;33.42;21.45;;;;;;;-1.07;96.33;100171.25;4849375;29;20105;-88
2020/12/06 05:47:44;;;;;;;34.13;20.70;;;;;;;-1.01;96.14;100169.25;4841875;29;20609;-88
2020/12/06 05:50:15;;;;;;;33.05;20.60;;;;;;;-1.07;96.38;100181.81;4834397;29;20053;-88
2020/12/06 05:52:40;;;;;;;33.95;21.08;;;;;;;-1.06;96.54;100175.63;4841710;29;21730;-88
2020/12/06 05:55:06;;;;;;;31.60;18.67;;;;;;;-1.03;96.31;100176.38;4844760;29;20045;-88
2020/12/06 05:57:34;;;;;;;32.30;20.05;;;;;;;-1.03;96.49;100173.72;4854633;29;20046;-88
2020/12/06 06:00:00;;;;;;;32.70;20.10;;;;;;;-1.06;96.48;100172.97;4835334;29;20392;-89
2020/12/06 06:02:29;;;;;;;32.95;20.80;;;;;;;-1.07;96.22;100175.69;4857664;29;20035;-88
2020/12/06 06:05:07;;;;;;;33.70;20.55;;;;;;;-1.04;96.10;100175.53;4838581;29;20098;-89
2020/12/06 06:07:34;;;;;;;30.13;20.23;;;;;;;-1.10;96.61;100171.41;4839538;29;20045;-87
2020/12/06 06:10:05;;;;;;;34.75;22.08;;;;;;;-1.12;96.66;100168.00;4854275;29;20042;-88
2020/12/06 06:12:34;;;;;;;35.20;21.80;;;;;;;-1.11;96.78;100161.78;4808852;29;20034;-88
2020/12/06 06:15:01;;;;;;;34.85;20.42;;;;;;;-1.00;96.88;100163.00;4836020;29;20041;-88
2020/12/06 06:17:31;;;;;;;36.42;20.75;;;;;;;-1.01;96.95;100164.81;4840973;29;20527;-88
2020/12/06 06:20:02;;;;;;;41.05;21.35;;;;;;;-0.93;96.55;100169.69;4840646;29;20053;-88
2020/12/06 06:22:33;;;;;;;38.50;21.85;;;;;;;-0.93;96.60;100174.97;4840943;29;20427;-88
2020/12/06 06:25:00;;;;;;;36.03;22.60;;;;;;;-0.97;96.61;100169.00;4830187;29;20046;-89
2020/12/06 06:27:36;;;;;;;38.25;21.95;;;;;;;-0.97;96.65;100165.50;4822657;29;20069;-89
2020/12/06 06:30:11;;;;;;;41.83;22.48;;;;;;;-0.96;96.99;100156.63;4832509;29;20388;-89
2020/12/06 06:32:39;;;;;;;39.75;23.90;;;;;;;-0.94;96.89;100160.91;4847546;29;20056;-89
2020/12/06 06:35:07;;;;;;;41.67;22.92;;;;;;;-0.92;97.08;100158.19;4835982;29;20473;-88
2020/12/06 06:37:37;;;;;;;37.00;22.38;;;;;;;-0.89;97.07;100158.03;4835375;29;20098;-88
2020/12/06 06:40:06;;;;;;;35.85;22.85;;;;;;;-0.87;96.88;100161.44;4843001;29;20069;-88
2020/12/06 06:42:35;;;;;;;37.63;21.15;;;;;;;-0.88;96.78;100159.75;4839954;29;20458;-88
2020/12/06 06:45:11;;;;;;;37.90;21.58;;;;;;;-0.83;97.06;100167.44;4833152;29;20053;-87
2020/12/06 06:47:45;;;;;;;40.35;22.33;;;;;;;-0.83;96.85;100163.00;4841154;29;20034;-89
2020/12/06 06:50:11;;;;;;;40.17;21.85;;;;;;;-0.79;97.03;100148.69;4841671;29;20041;-88
2020/12/06 06:52:43;;;;;;;38.20;21.88;;;;;;;-0.79;96.78;100150.50;4833608;29;20508;-89
2020/12/06 06:55:09;;;;;;;36.78;20.75;;;;;;;-0.75;96.80;100155.53;4840471;29;20124;-89
2020/12/06 06:57:39;;;;;;;41.08;22.92;;;;;;;-0.71;96.91;100154.44;4843318;29;20120;-89
2020/12/06 07:00:07;;;;;;;37.42;22.45;;;;;;;-0.75;96.81;100146.72;4827404;29;20098;-91
2020/12/06 07:02:46;;;;;;;39.60;22.65;;;;;;;-0.71;96.95;100157.06;4831818;29;20045;-88
2020/12/06 07:05:21;;;;;;;38.58;23.00;;;;;;;-0.72;96.90;100155.34;4835701;29;20045;-89
2020/12/06 07:07:58;;;;;;;42.60;23.73;;;;;;;-0.73;96.72;100163.38;4841755;29;20052;-90
2020/12/06 07:10:24;;;;;;;40.22;23.00;;;;;;;-0.73;96.76;100169.50;4843207;29;20050;-89
2020/12/06 07:12:53;;;;;;;38.17;22.65;;;;;;;-0.70;97.37;100176.41;4838595;29;20500;-89
2020/12/06 07:15:21;;;;;;;41.95;23.02;;;;;;;-0.62;97.37;100170.72;4832977;29;20045;-88
2020/12/06 07:18:02;;;;;;;40.22;22.40;;;;;;;-0.52;97.05;100171.94;4854211;29;20452;-90
2020/12/06 07:20:28;;;;;;;43.67;23.65;;;;;;;-0.56;96.76;100170.38;4832126;29;20128;-89
2020/12/06 07:23:00;;;;;;;42.13;23.20;;;;;;;-0.54;97.03;100168.53;4829703;29;20065;-89
2020/12/06 07:25:30;;;;;;;41.45;23.33;;;;;;;-0.51;97.02;100160.44;4857284;29;20044;-90
2020/12/06 07:28:00;;;;;;;45.65;24.08;;;;;;;-0.50;96.99;100170.06;4844291;29;20057;-89
2020/12/06 07:30:26;;;;;;;;;;;;;;;-0.48;96.96;100160.25;4841732;29;20041;-88
2020/12/06 07:32:51;;;;;;;47.42;24.30;;;;;;;-0.48;97.46;100151.50;4854448;29;19927;-90
2020/12/06 07:35:29;;;;;;;47.95;23.80;;;;;;;-0.43;97.26;100142.34;4863185;29;20049;-90
2020/12/06 07:38:00;;;;;;;46.25;25.00;;;;;;;-0.43;97.10;100149.44;4843236;29;20057;-88
2020/12/06 07:40:28;;;;;;;43.75;24.67;;;;;;;-0.42;97.13;100156.44;4838455;29;20176;-89
2020/12/06 07:42:57;;;;;;;48.72;24.38;;;;;;;-0.39;97.11;100150.97;4827860;29;20045;-89
2020/12/06 07:45:27;;;;;;;44.60;24.23;;;;;;;-0.44;97.03;100150.38;4855666;29;20089;-89
2020/12/06 07:48:19;;;;;;;45.25;25.17;;;;;;;-0.36;97.43;100151.66;4825587;29;20038;-89
2020/12/06 07:50:48;;;;;;;46.85;24.40;;;;;;;-0.27;97.37;100136.22;4845493;29;20839;-89
2020/12/06 07:53:18;;;;;;;43.08;23.67;;;;;;;-0.28;97.26;100147.75;4823467;29;20133;-91
2020/12/06 07:55:49;;;;;;;45.63;23.85;;;;;;;-0.25;97.13;100158.16;4845153;29;20042;-88
2020/12/06 07:58:21;;;;;;;43.17;23.38;;;;;;;-0.27;97.07;100160.03;4833917;29;20471;-88
2020/12/06 08:00:48;;;;;;;44.30;24.33;;;;;;;-0.22;97.17;100147.41;4839168;29;20057;-89
2020/12/06 08:03:23;;;;;;;50.92;25.98;;;;;;;-0.24;97.79;100144.00;4834361;29;20053;-88
2020/12/06 08:05:58;;;;;;;48.15;25.58;;;;;;;-0.21;97.41;100143.81;4836695;29;20050;-89
2020/12/06 08:08:23;;;;;;;50.72;25.55;;;;;;;-0.12;97.01;100145.09;4815739;29;20547;-89
2020/12/06 08:11:09;;;;;;;49.53;24.77;;;;;;;-0.10;97.27;100146.72;4843894;29;20457;-89
2020/12/06 08:13:40;;;;;;;49.20;26.10;;;;;;;-0.07;96.97;100143.06;4850538;29;20057;-91
2020/12/06 08:16:12;;;;;;;53.63;28.80;;;;;;;-0.03;97.29;100140.16;4843400;29;20068;-88
2020/12/06 08:18:37;;;;;;;54.75;26.55;;;;;;;-0.01;97.20;100132.97;4848961;29;20057;-88
2020/12/06 08:21:05;;;;;;;50.63;26.55;;;;;;;0.02;97.15;100129.31;4849683;29;20053;-88
2020/12/06 08:23:36;;;;;;;53.55;25.45;;;;;;;0.06;97.16;100137.91;4841082;29;20046;-88
2020/12/06 08:26:04;;;;;;;49.00;24.83;;;;;;;0.07;96.89;100145.78;4841485;29;20574;-87
2020/12/06 08:28:30;;;;;;;44.40;24.50;;;;;;;0.12;96.97;100148.19;4839444;29;20052;-88
2020/12/06 08:31:24;;;;;;;50.15;25.45;;;;;;;0.12;96.82;100161.41;4841498;29;20491;-89
2020/12/06 08:33:51;;;;;;;47.78;23.83;;;;;;;0.18;96.96;100166.34;4818043;29;20060;-89
2020/12/06 08:36:40;;;;;;;46.78;25.10;;;;;;;0.17;97.00;100164.63;4815191;29;20109;-88
2020/12/06 08:46:13;;;;;;;52.63;25.10;;;;;;;0.22;96.95;100167.03;4814383;29;20076;-88
2020/12/06 08:48:40;;;;;;;49.40;26.40;;;;;;;0.29;96.81;100173.69;4823783;29;20050;-92
2020/12/06 08:51:24;;;;;;;51.03;25.65;;;;;;;0.29;96.18;100174.50;4794104;29;20140;-92
2020/12/06 08:53:58;;;;;;;47.17;24.42;;;;;;;0.31;96.49;100183.25;4828444;29;20048;-91
2020/12/06 08:56:30;;;;;;;45.75;25.33;;;;;;;0.33;96.03;100191.94;4832432;29;20503;-89
2020/12/06 08:59:10;;;;;;;43.60;24.58;;;;;;;0.38;96.38;100193.47;4849445;29;20077;-89
2020/12/06 09:02:04;;;;;;;43.22;23.67;;;;;;;0.42;96.21;100184.44;4821862;29;20060;-89
2020/12/06 09:04:36;;;;;;;45.47;24.20;;;;;;;0.42;95.93;100192.38;4823043;29;20042;-90
2020/12/06 09:07:05;;;;;;;44.92;22.52;;;;;;;0.45;96.10;100179.78;4820766;29;20047;-89
2020/12/06 09:09:32;;;;;;;47.75;23.45;;;;;;;0.50;95.36;100172.44;4825900;29;20515;-89
2020/12/06 09:11:58;;;;;;;42.97;22.90;;;;;;;0.56;95.30;100165.06;4823399;29;20053;-89
2020/12/06 09:14:32;;;;;;;44.67;23.58;;;;;;;0.48;95.66;100154.94;4802488;29;20042;-90
2020/12/06 09:17:07;;;;;;;44.50;24.55;;;;;;;0.48;95.88;100142.53;4812366;29;20137;-91
2020/12/06 09:19:33;;;;;;;42.75;23.05;;;;;;;0.54;95.63;100141.34;4823813;29;20496;-90
2020/12/06 09:22:01;;;;;;;46.63;23.88;;;;;;;0.60;95.46;100142.78;4848135;29;20129;-89
2020/12/06 09:24:38;;;;;;;41.45;22.75;;;;;;;0.66;95.23;100160.94;4835100;29;20042;-90
2020/12/06 09:27:05;;;;;;;42.15;23.17;;;;;;;0.68;95.12;100164.38;4833209;29;20563;-88
2020/12/06 09:29:30;;;;;;;40.00;22.15;;;;;;;0.67;94.98;100171.47;4850436;29;20077;-90
2020/12/06 09:32:01;;;;;;;38.63;22.52;;;;;;;0.65;95.27;100162.75;4837476;29;20495;-91
2020/12/06 09:34:27;;;;;;;43.55;23.73;;;;;;;0.58;95.59;100163.22;4832787;29;20507;-89
2020/12/06 09:36:52;;;;;;;40.83;22.33;;;;;;;0.57;95.54;100162.34;4845242;29;20072;-88
2020/12/06 09:39:31;;;;;;;44.45;24.65;;;;;;;0.64;95.31;100165.50;4835815;29;20046;-90
2020/12/06 09:41:57;;;;;;;46.85;23.30;;;;;;;0.67;95.14;100168.81;4841062;29;20536;-90
2020/12/06 09:44:49;;;;;;;44.40;23.52;;;;;;;0.61;95.78;100173.63;4832554;29;20125;-89
2020/12/06 09:47:20;;;;;;;43.78;24.17;;;;;;;0.60;95.37;100167.47;4834803;29;20102;-88
2020/12/06 09:49:46;;;;;;;47.33;24.20;;;;;;;0.72;95.70;100159.75;4843205;29;20077;-90
2020/12/06 09:52:21;;;;;;;46.70;24.00;;;;;;;0.80;94.55;100157.50;4843153;29;20049;-89
2020/12/06 09:55:10;;;;;;;44.00;24.42;;;;;;;0.86;95.41;100151.84;4840933;29;20125;-90
2020/12/06 09:57:59;;;;;;;49.90;24.42;;;;;;;0.78;95.55;100146.13;4826792;29;20113;-89
2020/12/06 10:00:26;;;;;;;47.03;24.05;;;;;;;0.94;95.11;100148.72;4827811;29;20061;-88
2020/12/06 10:02:54;;;;;;;45.00;24.08;;;;;;;1.08;94.80;100143.44;4836618;29;20048;-90
2020/12/06 10:05:27;;;;;;;41.58;22.92;;;;;;;1.14;94.35;100131.63;4834556;29;20056;-90
2020/12/06 10:07:57;;;;;;;46.38;24.25;;;;;;;1.30;94.31;100129.72;4838375;29;20422;-88
2020/12/06 10:10:29;;;;;;;43.97;23.77;;;;;;;1.35;93.68;100124.16;4821456;29;20060;-89
2020/12/06 10:12:58;;;;;;;42.25;23.02;;;;;;;1.32;93.70;100127.00;4829719;29;20038;-91
2020/12/06 10:15:26;;;;;;;46.97;24.30;;;;;;;1.37;94.19;100124.88;4832511;29;20042;-89
2020/12/06 10:17:52;;;;;;;46.28;24.35;;;;;;;1.39;94.24;100115.91;4839102;29;20045;-90
2020/12/06 10:20:23;;;;;;;40.33;23.15;;;;;;;1.49;93.72;100118.84;4831653;29;20097;-89
2020/12/06 10:22:48;;;;;;;41.20;22.23;;;;;;;1.60;93.90;100119.97;4829510;29;20493;-88
2020/12/06 10:25:22;;;;;;;44.08;22.13;;;;;;;1.76;93.25;100110.06;4850289;29;20061;-88
2020/12/06 10:27:49;;;;;;;42.03;24.65;;;;;;;1.83;92.90;100105.25;4837095;29;20052;-88
2020/12/06 10:30:24;;;;;;;42.67;24.38;;;;;;;1.76;92.56;100102.13;4840133;29;20522;-87
2020/12/06 10:32:50;;;;;;;48.55;26.55;;;;;;;1.83;93.07;100099.94;4830063;29;20049;-89
2020/12/06 10:35:16;;;;;;;37.38;21.90;;;;;;;1.74;93.25;100101.38;4832590;29;20123;-88
2020/12/06 10:38:06;;;;;;;42.63;24.48;;;;;;;1.77;93.09;100105.59;4817155;29;20056;-88
2020/12/06 10:40:31;;;;;;;;;;;;;;;1.82;93.01;100108.84;4823976;29;20040;-88
2020/12/06 10:43:15;;;;;;;39.13;21.95;;;;;;;1.78;93.24;100102.84;4840843;29;19972;-89
2020/12/06 10:45:44;;;;;;;46.17;23.52;;;;;;;1.78;93.43;100107.31;4808845;29;20068;-89
2020/12/06 10:48:39;;;;;;;51.53;26.77;;;;;;;1.96;93.01;100110.59;4829814;29;20041;-88
2020/12/06 10:51:07;;;;;;;44.30;23.98;;;;;;;2.04;92.47;100103.81;4854511;29;20149;-87
2020/12/06 10:53:57;;;;;;;43.45;23.73;;;;;;;2.01;92.15;100098.72;4843642;29;20044;-90
2020/12/06 10:56:31;;;;;;;39.97;22.50;;;;;;;2.14;92.04;100097.94;4818976;29;20447;-87
2020/12/06 10:59:06;;;;;;;38.67;21.90;;;;;;;2.33;91.06;100100.22;4845340;29;20046;-86
2020/12/06 11:01:45;;;;;;;41.53;22.95;;;;;;;2.33;91.51;100101.06;4805028;29;20499;-87
2020/12/06 11:04:28;;;;;;;39.30;23.05;;;;;;;2.45;91.65;100086.97;4826735;29;20132;-86
2020/12/06 11:07:16;;;;;;;;;;;;;;;;;;;;;
2020/12/06 11:09:58;;;;;;;39.05;21.48;;;;;;;2.50;91.75;100073.38;4826330;29;20073;-86
2020/12/06 11:12:33;;;;;;;37.00;21.55;;;;;;;2.48;92.04;100075.28;4845154;29;20036;-86
2020/12/06 11:15:29;;;;;;;39.55;22.50;;;;;;;2.49;92.07;100077.00;4810479;29;20487;-85
2020/12/06 11:21:35;;;;;;;36.35;20.55;;;;;;;2.52;90.36;100086.53;4838422;29;20068;-86
2020/12/06 11:24:03;;;;;;;36.13;19.92;;;;;;;2.40;90.89;100078.47;4793950;29;20439;-85
2020/12/06 11:26:33;;;;;;;37.80;21.57;;;;;;;2.40;91.52;100088.22;4785761;29;20057;-85
2020/12/06 11:29:23;;;;;;;36.80;21.17;;;;;;;2.49;91.28;100092.06;4812914;29;20209;-86
2020/12/06 11:31:51;;;;;;;36.70;21.17;;;;;;;2.54;91.58;100090.81;4820757;29;20059;-85
2020/12/06 11:34:31;;;;;;;41.08;22.55;;;;;;;2.59;91.14;100091.38;4837932;29;20493;-85
2020/12/06 11:37:08;;;;;;;39.67;20.95;;;;;;;2.56;91.28;100104.84;4826517;29;20596;-85